createdAt,value
2022-12-12T00:05:02.384Z,102372.56
2022-12-12T00:10:06.290Z,102358.63
2022-12-12T00:15:10.060Z,102357.44
2022-12-12T00:20:13.353Z,102346.50
2022-12-12T00:25:16.387Z,102349.53
2022-12-12T00:30:19.430Z,102347.56
2022-12-12T00:35:22.765Z,102364.84
2022-12-12T00:40:25.810Z,102355.28
2022-12-12T00:45:28.858Z,102356.78
2022-12-12T00:50:32.457Z,102364.09
2022-12-12T00:55:35.513Z,102386.78
2022-12-12T01:00:41.607Z,102386.56
2022-12-12T01:05:44.757Z,102359.84
2022-12-12T01:11:08.300Z,102374.78
2022-12-12T01:16:12.811Z,102369.22
2022-12-12T01:21:18.869Z,102350.75
2022-12-12T01:26:24.585Z,102376.22
2022-12-12T01:31:27.748Z,102374.56
2022-12-12T01:36:30.758Z,102377.50
2022-12-12T01:41:34.156Z,102371.09
2022-12-12T01:46:39.224Z,102374.09
2022-12-12T01:51:43.539Z,102370.94
2022-12-12T01:56:48.992Z,102345.13
2022-12-12T02:01:53.356Z,102353.75
2022-12-12T02:06:56.781Z,102347.94
2022-12-12T02:11:59.869Z,102377.97
2022-12-12T02:17:27.476Z,102374.56
2022-12-12T02:22:51.495Z,102380.13
2022-12-12T02:28:14.354Z,102377.38
2022-12-12T02:33:28.442Z,102363.41
2022-12-12T02:38:41.040Z,102382.69
2022-12-12T02:44:13.483Z,102375.19
2022-12-12T02:49:25.656Z,102387.00
2022-12-12T02:54:28.704Z,102385.09
2022-12-12T02:59:33.171Z,102357.50
2022-12-12T03:05:27.329Z,102370.56
2022-12-12T03:10:53.618Z,102376.50
2022-12-12T03:16:09.857Z,102362.97
2022-12-12T03:21:23.006Z,102358.09
2022-12-12T03:26:36.960Z,102376.50
2022-12-12T03:31:45.608Z,102350.53
2022-12-12T03:37:10.551Z,102375.59
2022-12-12T03:42:26.818Z,102370.88
2022-12-12T03:47:39.535Z,102346.75
2022-12-12T03:52:48.347Z,102365.00
2022-12-12T03:58:01.048Z,102361.44
2022-12-12T04:03:23.139Z,102359.22
2022-12-12T04:08:27.785Z,102364.13
2022-12-12T04:13:43.485Z,102331.94
2022-12-12T04:19:07.104Z,102368.38
2022-12-12T04:24:15.897Z,102362.66
2022-12-12T04:29:31.674Z,102341.84
2022-12-12T04:35:19.429Z,102376.53
2022-12-12T04:40:27.039Z,102386.25
2022-12-12T04:45:39.682Z,102371.09
2022-12-12T04:50:44.676Z,102376.94
2022-12-12T04:55:52.946Z,102384.59
2022-12-12T05:01:04.423Z,102389.56
2022-12-12T05:06:12.102Z,102384.50
2022-12-12T05:11:15.981Z,102385.44
2022-12-12T05:16:35.696Z,102388.34
2022-12-12T05:21:39.148Z,102383.84
2022-12-12T05:26:42.419Z,102375.78
2022-12-12T05:31:45.466Z,102320.06
2022-12-12T05:36:48.958Z,102340.78
2022-12-12T05:41:52.373Z,102347.31
2022-12-12T05:46:55.445Z,102346.66
2022-12-12T05:51:58.570Z,102350.81
2022-12-12T05:57:02.569Z,102349.34
2022-12-12T06:02:05.792Z,102346.88
2022-12-12T06:07:09.584Z,102351.94
2022-12-12T06:12:12.681Z,102343.66
2022-12-12T06:17:15.778Z,102331.41
2022-12-12T06:22:19.519Z,102302.31
2022-12-12T06:27:22.772Z,102314.94
2022-12-12T06:32:25.833Z,102292.63
2022-12-12T06:37:28.893Z,102316.84
2022-12-12T06:42:32.797Z,102316.03
2022-12-12T06:47:35.928Z,102293.19
2022-12-12T06:52:39.119Z,102317.47
2022-12-12T06:57:42.224Z,102321.59
2022-12-12T07:02:45.331Z,102293.97
2022-12-12T07:07:48.416Z,102326.69
2022-12-12T07:12:57.189Z,102313.47
2022-12-12T07:18:00.542Z,102299.59
2022-12-12T07:23:04.250Z,102288.03
2022-12-12T07:28:08.390Z,102296.22
2022-12-12T07:33:13.835Z,102286.94
2022-12-12T07:38:16.884Z,102286.78
2022-12-12T07:43:19.921Z,102282.25
2022-12-12T07:48:22.985Z,102279.19
2022-12-12T07:53:26.236Z,102261.47
2022-12-12T07:58:29.323Z,102261.16
2022-12-12T08:03:32.311Z,102269.78
2022-12-12T08:08:35.916Z,102242.28
2022-12-12T08:13:39.975Z,102240.53
2022-12-12T08:18:43.897Z,102237.84
2022-12-12T08:23:47.198Z,102233.50
2022-12-12T08:28:50.356Z,102226.97
2022-12-12T08:33:54.023Z,102201.53
2022-12-12T08:38:58.038Z,102214.31
2022-12-12T08:44:01.124Z,102207.78
2022-12-12T08:49:04.245Z,102192.47
2022-12-12T08:59:24.270Z,102188.41
2022-12-12T09:04:27.373Z,102188.94
2022-12-12T09:09:30.643Z,102172.75
2022-12-12T09:14:34.017Z,102142.56
2022-12-12T09:19:37.143Z,102153.03
2022-12-12T09:24:40.179Z,102159.03
2022-12-12T09:29:43.377Z,102128.91
2022-12-12T09:34:46.542Z,102149.38
2022-12-12T09:39:52.526Z,102139.28
2022-12-12T09:45:00.980Z,102114.88
2022-12-12T09:50:14.099Z,102102.41
2022-12-12T09:55:20.526Z,102122.09
2022-12-12T10:00:23.687Z,102089.59
2022-12-12T10:05:39.048Z,102080.34
2022-12-12T10:10:46.395Z,102110.56
2022-12-12T10:15:53.860Z,102100.50
2022-12-12T10:21:01.786Z,102076.34
2022-12-12T10:26:20.841Z,102085.28
2022-12-12T10:31:29.482Z,102097.97
2022-12-12T10:36:41.412Z,102090.47
2022-12-12T10:42:09.422Z,102077.09
2022-12-12T10:47:13.245Z,102071.41
2022-12-12T10:52:20.971Z,102068.31
2022-12-12T10:57:30.160Z,102065.16
2022-12-12T11:02:43.768Z,102063.59
2022-12-12T11:07:50.563Z,102048.63
2022-12-12T11:13:00.947Z,102039.38
2022-12-12T11:18:06.387Z,102043.13
2022-12-12T11:23:19.184Z,102033.63
2022-12-12T11:28:24.743Z,102037.19
2022-12-12T11:33:46.491Z,102022.34
2022-12-12T11:38:54.785Z,102036.47
2022-12-12T11:44:01.683Z,102031.28
2022-12-12T11:49:05.969Z,102029.47
2022-12-12T11:54:19.974Z,102016.16
2022-12-12T11:59:39.758Z,102012.16
2022-12-12T12:05:04.079Z,102040.31
2022-12-12T12:10:39.239Z,102035.75
2022-12-12T12:15:54.323Z,102047.28
2022-12-12T12:21:03.143Z,102049.56
2022-12-12T12:26:13.695Z,102058.53
2022-12-12T12:31:44.406Z,102054.84
2022-12-12T12:37:02.250Z,102051.09
2022-12-12T12:42:23.599Z,102052.66
2022-12-12T12:47:34.644Z,102048.19
2022-12-12T12:53:01.789Z,102042.59
2022-12-12T12:58:07.552Z,102028.38
2022-12-12T13:03:27.977Z,102026.50
2022-12-12T13:08:45.954Z,102041.88
2022-12-12T13:13:52.429Z,102024.94
2022-12-12T13:19:11.686Z,102041.63
2022-12-12T13:24:19.937Z,102033.63
2022-12-12T13:29:32.339Z,102038.31
2022-12-12T13:34:40.565Z,102027.97
2022-12-12T13:46:05.276Z,102042.75
2022-12-12T13:51:33.956Z,102039.97
2022-12-12T13:56:43.666Z,102034.66
2022-12-12T14:01:46.828Z,102006.28
2022-12-12T14:07:07.716Z,102032.38
2022-12-12T14:12:35.065Z,102014.72
2022-12-12T14:17:42.647Z,102035.66
2022-12-12T14:22:47.508Z,102032.66
2022-12-12T14:27:50.595Z,102032.44
2022-12-12T14:33:18.023Z,102022.53
2022-12-12T14:38:35.049Z,102014.88
2022-12-12T14:43:42.812Z,102024.78
2022-12-12T14:48:46.111Z,102030.06
2022-12-12T14:53:52.551Z,102038.22
2022-12-12T14:58:55.573Z,102039.63
2022-12-12T15:04:00.199Z,102010.97
2022-12-12T15:09:26.359Z,102034.63
2022-12-12T15:14:29.463Z,102029.09
2022-12-12T15:19:45.056Z,102028.88
2022-12-12T15:24:48.594Z,102025.56
2022-12-12T15:29:52.023Z,102023.31
2022-12-12T15:35:03.030Z,102025.53
2022-12-12T15:40:12.035Z,102054.63
2022-12-12T15:45:24.700Z,102053.59
2022-12-12T15:50:34.840Z,102029.03
2022-12-12T15:55:38.011Z,102030.06
2022-12-12T16:00:41.243Z,102022.81
2022-12-12T16:05:44.378Z,102043.38
2022-12-12T16:10:53.382Z,102055.50
2022-12-12T16:15:56.419Z,102029.53
2022-12-12T16:21:01.667Z,102040.00
2022-12-12T16:26:04.744Z,102050.22
2022-12-12T16:31:16.603Z,102010.72
2022-12-12T16:36:19.714Z,102010.09
2022-12-12T16:41:23.236Z,102010.44
2022-12-12T16:46:26.976Z,102012.09
2022-12-12T16:51:32.485Z,102019.97
2022-12-12T16:56:35.610Z,102017.75
2022-12-12T17:01:40.427Z,102021.13
2022-12-12T17:06:43.526Z,101987.00
2022-12-12T17:11:46.792Z,102004.41
2022-12-12T17:16:50.685Z,102012.28
2022-12-12T17:21:53.790Z,102038.19
2022-12-12T17:26:56.875Z,101999.22
2022-12-12T17:31:59.986Z,102007.25
2022-12-12T17:37:03.062Z,102004.97
2022-12-12T17:42:06.131Z,102021.66
2022-12-12T17:47:09.420Z,102010.75
2022-12-12T17:52:12.534Z,102025.75
2022-12-12T17:57:15.590Z,102014.13
2022-12-12T18:02:18.582Z,102022.94
2022-12-12T18:07:21.748Z,102017.91
2022-12-12T18:12:24.872Z,102028.94
2022-12-12T18:17:27.932Z,102035.81
2022-12-12T18:22:31.209Z,102023.34
2022-12-12T18:27:34.243Z,102035.31
2022-12-12T18:32:37.311Z,102034.78
2022-12-12T18:37:40.441Z,102020.91
2022-12-12T18:42:47.234Z,102040.41
2022-12-12T18:47:50.483Z,102021.88
2022-12-12T18:52:53.541Z,102027.56
2022-12-12T18:57:58.015Z,102033.97
2022-12-12T19:03:01.058Z,102001.69
2022-12-12T19:08:04.219Z,102030.81
2022-12-12T19:13:07.276Z,102041.41
2022-12-12T19:18:10.859Z,102033.81
2022-12-12T19:23:13.935Z,102004.84
2022-12-12T19:28:16.974Z,102049.78
2022-12-12T19:33:20.181Z,102054.97
2022-12-12T19:38:24.795Z,102058.44
2022-12-12T19:43:30.656Z,102026.44
2022-12-12T19:48:34.421Z,102058.19
2022-12-12T19:53:42.343Z,102044.63
2022-12-12T19:58:47.073Z,102058.84
2022-12-12T20:03:55.849Z,102064.88
2022-12-12T20:09:00.402Z,102056.13
2022-12-12T20:14:03.986Z,102087.53
2022-12-12T20:19:07.053Z,102067.41
2022-12-12T20:24:10.522Z,102075.75
2022-12-12T20:29:15.198Z,102067.72
2022-12-12T20:34:22.795Z,102054.75
2022-12-12T20:39:26.266Z,102089.34
2022-12-12T20:44:30.322Z,102072.59
2022-12-12T20:49:33.459Z,102085.38
2022-12-12T20:54:47.763Z,102068.13
2022-12-12T20:59:51.312Z,102075.16
2022-12-12T21:04:54.512Z,102090.13
2022-12-12T21:09:57.636Z,102094.91
2022-12-12T21:15:02.952Z,102096.28
2022-12-12T21:20:08.849Z,102096.31
2022-12-12T21:25:12.133Z,102078.50
2022-12-12T21:30:15.522Z,102105.00
2022-12-12T21:35:18.744Z,102090.78
2022-12-12T21:40:21.849Z,102095.94
2022-12-12T21:45:24.862Z,102089.69
2022-12-12T21:50:30.919Z,102068.13
2022-12-12T21:55:38.151Z,102081.19
2022-12-12T22:00:42.888Z,102066.28
2022-12-12T22:05:46.033Z,102078.03
2022-12-12T22:10:54.236Z,102069.31
2022-12-12T22:16:01.609Z,102079.00
2022-12-12T22:21:06.358Z,102101.22
2022-12-12T22:26:22.098Z,102078.75
2022-12-12T22:31:28.546Z,102095.75
2022-12-12T22:36:34.814Z,102084.06
2022-12-12T22:41:37.843Z,102112.19
2022-12-12T22:46:43.868Z,102091.09
2022-12-12T22:51:49.063Z,102097.34
2022-12-12T22:56:52.305Z,102112.72
2022-12-12T23:07:12.053Z,102122.28
2022-12-12T23:12:15.188Z,102110.94
2022-12-12T23:17:18.276Z,102096.78
2022-12-12T23:22:21.279Z,102096.69
2022-12-12T23:27:25.087Z,102113.81
2022-12-12T23:32:28.082Z,102126.69
2022-12-12T23:37:31.199Z,102111.78
2022-12-12T23:42:43.973Z,102128.41
2022-12-12T23:47:47.102Z,102109.91
2022-12-12T23:52:50.265Z,102121.56
2022-12-12T23:57:53.348Z,102121.19
